Hikarimaru No.17 — JD2956 — position and weather

sailwx.info

Track history (hours):
 
Tides and Currents Weather Stations Pressure Air Temp Water Temp Dewpoint Dewpoint Depression Visibility Wind Speed Wind Dir Waves Ship Positions

Hikarimaru No.17

Last reported at 2016-Feb-08 21:33 UTC. Time now 2016-Feb-11 17:10 UTC.
Position N 34°03' E 135°03'.

Length 105 m; draft 6.3 m.

Type: Tanker. MMSI: 431000984.

Date/timePositionNaut miles runAvg speedWind from/ knotsBaromVisibWave heightAir tempDewpointWater temp
2016-Feb-08 21:33N 34°03' E 135°03'8 7.9
2016-Feb-08 20:31N 34°10' E 135°08'0 0.1
2016-Feb-08 19:31N 34°10' E 135°08'0 0.1
2016-Feb-08 18:31N 34°10' E 135°08'0 0.0
2016-Feb-08 17:31N 34°10' E 135°08'0 0.0
2016-Feb-08 16:31N 34°10' E 135°08'0 0.1
2016-Feb-08 15:31N 34°10' E 135°08'0 0.0
2016-Feb-08 14:28N 34°10' E 135°08'3 3.2
2016-Feb-08 13:33N 34°11' E 135°05'1110.9
2016-Feb-08 12:33N 34°21' E 135°00'1212.4
2016-Feb-08 11:33N 34°28' E 135°13'1111.2
2016-Feb-08 10:33N 34°33' E 135°25'4 0.7
2016-Feb-08 05:34N 34°33' E 135°21'1312.9
2016-Feb-08 04:32N 34°24' E 135°08'1111.2
2016-Feb-08 03:34N 34°16' E 134°59'12 3.0
2016-Feb-07 23:30N 34°09' E 135°11'2 2.1
2016-Feb-07 22:33N 34°09' E 135°09'0 0.0
2016-Feb-07 21:30N 34°09' E 135°09'0 0.0
2016-Feb-07 20:33N 34°09' E 135°09'0 0.0
2016-Feb-07 19:33N 34°09' E 135°09'0 0.0
2016-Feb-07 18:33N 34°09' E 135°09'0 0.0
2016-Feb-07 17:30N 34°09' E 135°09'0 0.0
2016-Feb-07 16:33N 34°09' E 135°09'0 0.0
2016-Feb-07 15:30N 34°09' E 135°09'0 0.0
2016-Feb-07 14:30N 34°09' E 135°09'0 0.0
2016-Feb-07 13:30N 34°09' E 135°09'0 0.0
2016-Feb-07 12:27N 34°09' E 135°09'0 0.0
2016-Feb-07 11:33N 34°09' E 135°09'0 0.0
2016-Feb-07 10:33N 34°09' E 135°09'0 0.0
2016-Feb-07 09:30N 34°09' E 135°09'0 0.0
2016-Feb-07 08:33N 34°09' E 135°09'0 0.0
2016-Feb-07 07:33N 34°09' E 135°09'9 8.9
2016-Feb-07 06:33N 34°14' E 135°00'1111.5
2016-Feb-07 05:33N 34°25' E 135°06'1513.3
2016-Feb-07 04:26N 34°33' E 135°21'2 0.5
2016-Feb-06 23:33N 34°33' E 135°24'4 3.6
2016-Feb-06 22:30N 34°32' E 135°20'0 0.0
2016-Feb-06 21:30N 34°32' E 135°20'0 0.0
2016-Feb-06 20:30N 34°32' E 135°20'0 0.0
2016-Feb-06 18:30N 34°32' E 135°20'0 0.1
2016-Feb-06 17:30N 34°32' E 135°20'0 0.0
2016-Feb-06 15:30N 34°32' E 135°20'0 0.0
2016-Feb-06 12:18N 34°32' E 135°20'0 0.0
2016-Feb-06 11:30N 34°32' E 135°20'0 0.0
2016-Feb-06 10:30N 34°32' E 135°20'0 0.1
2016-Feb-06 09:24N 34°32' E 135°20'3 3.3
2016-Feb-06 08:33N 34°31' E 135°17'1813.0
2016-Feb-06 07:11N 34°19' E 135°01'711.9
2016-Feb-06 06:33N 34°11' E 134°60'23710.3
2016-Feb-05 07:30N 35°04' E 139°41'1213.0
2016-Feb-05 06:33N 35°15' E 139°46'8 7.6
2016-Feb-05 05:31N 35°23' E 139°44'0 0.1
2016-Feb-05 04:31N 35°23' E 139°44'0 0.0
2016-Feb-05 03:28N 35°23' E 139°44'0 0.0
2016-Feb-05 02:31N 35°23' E 139°44'0 0.0
2016-Feb-05 01:31N 35°23' E 139°44'0 0.1
2016-Feb-05 00:31N 35°23' E 139°44'0 0.1
2016-Feb-04 23:31N 35°23' E 139°44'0 0.0
2016-Feb-04 22:31N 35°23' E 139°44'0 0.0
2016-Feb-04 21:28N 35°23' E 139°44'0 0.0
2016-Feb-04 20:31N 35°23' E 139°44'0 0.0
2016-Feb-04 19:31N 35°23' E 139°44'0 0.0
2016-Feb-04 18:31N 35°23' E 139°44'0 0.0
2016-Feb-04 17:31N 35°23' E 139°44'0 0.0
2016-Feb-04 16:31N 35°23' E 139°44'0 0.1
2016-Feb-04 15:31N 35°23' E 139°44'0 0.0
2016-Feb-04 14:31N 35°23' E 139°44'0 0.1
2016-Feb-04 13:31N 35°23' E 139°44'0 0.0
2016-Feb-04 12:31N 35°23' E 139°44'0 0.0
2016-Feb-04 11:28N 35°23' E 139°44'0 0.1
2016-Feb-04 10:31N 35°23' E 139°44'4 4.2
2016-Feb-04 09:33N 35°27' E 139°42'2 1.8
2016-Feb-04 08:33N 35°28' E 139°40'0 0.0
2016-Feb-04 07:33N 35°28' E 139°40'0 0.0
2016-Feb-04 06:33N 35°28' E 139°40'0 0.0
2016-Feb-04 05:33N 35°28' E 139°40'0 0.0
2016-Feb-04 04:33N 35°28' E 139°40'0 0.0
2016-Feb-04 03:33N 35°28' E 139°40'0 0.0
2016-Feb-04 02:33N 35°28' E 139°40'0 0.0
2016-Feb-04 01:33N 35°28' E 139°40'2 2.4
2016-Feb-04 00:33N 35°26' E 139°42'3 3.1
2016-Feb-03 23:33N 35°24' E 139°44'0 0.0
2016-Feb-03 22:27N 35°24' E 139°44'0 0.0
2016-Feb-03 21:33N 35°24' E 139°44'0 0.0
2016-Feb-03 20:33N 35°24' E 139°44'0 0.0
2016-Feb-03 19:33N 35°24' E 139°44'0 0.0
2016-Feb-03 18:33N 35°24' E 139°44'0 0.0
2016-Feb-03 17:33N 35°24' E 139°44'0 0.0
2016-Feb-03 16:33N 35°24' E 139°44'0 0.0
2016-Feb-03 15:33N 35°24' E 139°44'0 0.0
2016-Feb-03 14:33N 35°24' E 139°44'0 0.0
2016-Feb-03 13:33N 35°24' E 139°44'0 0.0
2016-Feb-03 12:33N 35°24' E 139°44'0 0.0
2016-Feb-03 11:33N 35°24' E 139°44'0 0.0
2016-Feb-03 10:33N 35°24' E 139°44'0 0.0
2016-Feb-03 09:32N 35°24' E 139°44'3 3.0
2016-Feb-03 08:34N 35°21' E 139°43'1311.6
2016-Feb-03 07:29N 35°08' E 139°45'  
Track history (hours):
 
Tides and Currents Weather Stations Pressure Air Temp Water Temp Dewpoint Dewpoint Depression Visibility Wind Speed Wind Dir Waves Ship Positions

Hikarimaru No.17

Last reported at 2016-Feb-08 21:33 UTC. Time now 2016-Feb-11 17:10 UTC.
Position N 34°03' E 135°03'.

Length 105 m; draft 6.3 m.

Type: Tanker. MMSI: 431000984.

Date/timePositionNaut miles runAvg speedWind from/ knotsBaromVisibWave heightAir tempDewpointWater temp
2016-Feb-08 21:33N 34°03' E 135°03'8 7.9
2016-Feb-08 20:31N 34°10' E 135°08'0 0.1
2016-Feb-08 19:31N 34°10' E 135°08'0 0.1
2016-Feb-08 18:31N 34°10' E 135°08'0 0.0
2016-Feb-08 17:31N 34°10' E 135°08'0 0.0
2016-Feb-08 16:31N 34°10' E 135°08'0 0.1
2016-Feb-08 15:31N 34°10' E 135°08'0 0.0
2016-Feb-08 14:28N 34°10' E 135°08'3 3.2
2016-Feb-08 13:33N 34°11' E 135°05'1110.9
2016-Feb-08 12:33N 34°21' E 135°00'1212.4
2016-Feb-08 11:33N 34°28' E 135°13'1111.2
2016-Feb-08 10:33N 34°33' E 135°25'4 0.7
2016-Feb-08 05:34N 34°33' E 135°21'1312.9
2016-Feb-08 04:32N 34°24' E 135°08'1111.2
2016-Feb-08 03:34N 34°16' E 134°59'12 3.0
2016-Feb-07 23:30N 34°09' E 135°11'2 2.1
2016-Feb-07 22:33N 34°09' E 135°09'0 0.0
2016-Feb-07 21:30N 34°09' E 135°09'0 0.0
2016-Feb-07 20:33N 34°09' E 135°09'0 0.0
2016-Feb-07 19:33N 34°09' E 135°09'0 0.0
2016-Feb-07 18:33N 34°09' E 135°09'0 0.0
2016-Feb-07 17:30N 34°09' E 135°09'0 0.0
2016-Feb-07 16:33N 34°09' E 135°09'0 0.0
2016-Feb-07 15:30N 34°09' E 135°09'0 0.0
2016-Feb-07 14:30N 34°09' E 135°09'0 0.0
2016-Feb-07 13:30N 34°09' E 135°09'0 0.0
2016-Feb-07 12:27N 34°09' E 135°09'0 0.0
2016-Feb-07 11:33N 34°09' E 135°09'0 0.0
2016-Feb-07 10:33N 34°09' E 135°09'0 0.0
2016-Feb-07 09:30N 34°09' E 135°09'0 0.0
2016-Feb-07 08:33N 34°09' E 135°09'0 0.0
2016-Feb-07 07:33N 34°09' E 135°09'9 8.9
2016-Feb-07 06:33N 34°14' E 135°00'1111.5
2016-Feb-07 05:33N 34°25' E 135°06'1513.3
2016-Feb-07 04:26N 34°33' E 135°21'2 0.5
2016-Feb-06 23:33N 34°33' E 135°24'4 3.6
2016-Feb-06 22:30N 34°32' E 135°20'0 0.0
2016-Feb-06 21:30N 34°32' E 135°20'0 0.0
2016-Feb-06 20:30N 34°32' E 135°20'0 0.0
2016-Feb-06 18:30N 34°32' E 135°20'0 0.1
2016-Feb-06 17:30N 34°32' E 135°20'0 0.0
2016-Feb-06 15:30N 34°32' E 135°20'0 0.0
2016-Feb-06 12:18N 34°32' E 135°20'0 0.0
2016-Feb-06 11:30N 34°32' E 135°20'0 0.0
2016-Feb-06 10:30N 34°32' E 135°20'0 0.1
2016-Feb-06 09:24N 34°32' E 135°20'3 3.3
2016-Feb-06 08:33N 34°31' E 135°17'1813.0
2016-Feb-06 07:11N 34°19' E 135°01'711.9
2016-Feb-06 06:33N 34°11' E 134°60'23710.3
2016-Feb-05 07:30N 35°04' E 139°41'1213.0
2016-Feb-05 06:33N 35°15' E 139°46'8 7.6
2016-Feb-05 05:31N 35°23' E 139°44'0 0.1
2016-Feb-05 04:31N 35°23' E 139°44'0 0.0
2016-Feb-05 03:28N 35°23' E 139°44'0 0.0
2016-Feb-05 02:31N 35°23' E 139°44'0 0.0
2016-Feb-05 01:31N 35°23' E 139°44'0 0.1
2016-Feb-05 00:31N 35°23' E 139°44'0 0.1
2016-Feb-04 23:31N 35°23' E 139°44'0 0.0
2016-Feb-04 22:31N 35°23' E 139°44'0 0.0
2016-Feb-04 21:28N 35°23' E 139°44'0 0.0
2016-Feb-04 20:31N 35°23' E 139°44'0 0.0
2016-Feb-04 19:31N 35°23' E 139°44'0 0.0
2016-Feb-04 18:31N 35°23' E 139°44'0 0.0
2016-Feb-04 17:31N 35°23' E 139°44'0 0.0
2016-Feb-04 16:31N 35°23' E 139°44'0 0.1
2016-Feb-04 15:31N 35°23' E 139°44'0 0.0
2016-Feb-04 14:31N 35°23' E 139°44'0 0.1
2016-Feb-04 13:31N 35°23' E 139°44'0 0.0
2016-Feb-04 12:31N 35°23' E 139°44'0 0.0
2016-Feb-04 11:28N 35°23' E 139°44'0 0.1
2016-Feb-04 10:31N 35°23' E 139°44'4 4.2
2016-Feb-04 09:33N 35°27' E 139°42'2 1.8
2016-Feb-04 08:33N 35°28' E 139°40'0 0.0
2016-Feb-04 07:33N 35°28' E 139°40'0 0.0
2016-Feb-04 06:33N 35°28' E 139°40'0 0.0
2016-Feb-04 05:33N 35°28' E 139°40'0 0.0
2016-Feb-04 04:33N 35°28' E 139°40'0 0.0
2016-Feb-04 03:33N 35°28' E 139°40'0 0.0
2016-Feb-04 02:33N 35°28' E 139°40'0 0.0
2016-Feb-04 01:33N 35°28' E 139°40'2 2.4
2016-Feb-04 00:33N 35°26' E 139°42'3 3.1
2016-Feb-03 23:33N 35°24' E 139°44'0 0.0
2016-Feb-03 22:27N 35°24' E 139°44'0 0.0
2016-Feb-03 21:33N 35°24' E 139°44'0 0.0
2016-Feb-03 20:33N 35°24' E 139°44'0 0.0
2016-Feb-03 19:33N 35°24' E 139°44'0 0.0
2016-Feb-03 18:33N 35°24' E 139°44'0 0.0
2016-Feb-03 17:33N 35°24' E 139°44'0 0.0
2016-Feb-03 16:33N 35°24' E 139°44'0 0.0
2016-Feb-03 15:33N 35°24' E 139°44'0 0.0
2016-Feb-03 14:33N 35°24' E 139°44'0 0.0
2016-Feb-03 13:33N 35°24' E 139°44'0 0.0
2016-Feb-03 12:33N 35°24' E 139°44'0 0.0
2016-Feb-03 11:33N 35°24' E 139°44'0 0.0
2016-Feb-03 10:33N 35°24' E 139°44'0 0.0
2016-Feb-03 09:32N 35°24' E 139°44'3 3.0
2016-Feb-03 08:34N 35°21' E 139°43'1311.6
2016-Feb-03 07:29N 35°08' E 139°45'  

Dump ship's entire track history